Taranto — V2AK2 — position and weather

sailwx.info

Track history (hours):
 
Tides and Currents Weather Stations Pressure Air Temp Water Temp Dewpoint Dewpoint Depression Visibility Wind Speed Wind Dir Waves Ship Positions

Taranto

Last reported at 2015-Jun-30 09:33 UTC. Time now 2015-Jun-30 09:59 UTC.
Position N 54°07' E 000°00'.

Length 88 m; draft 3.4 m.

Type: Ship. MMSI: 304010614.

Date/timePositionNaut miles runAvg speedWind from/ knotsBaromVisibWave heightAir tempDewpointWater temp
2015-Jun-30 09:33N 54°07' E 000°00'6 5.8
2015-Jun-30 08:33N 54°11' W 000°06'6 6.1
2015-Jun-30 07:33N 54°16' W 000°12'7 6.5
2015-Jun-30 06:33N 54°21' W 000°19'7 6.8
2015-Jun-30 05:33N 54°27' W 000°26'8 7.7
2015-Jun-30 04:30N 54°33' W 000°35'8 8.2
2015-Jun-30 03:33N 54°37' W 000°46'9 8.4
2015-Jun-30 02:31N 54°42' W 000°59'8 8.2
2015-Jun-30 01:33N 54°47' W 001°10'7 5.1
2015-Jun-30 00:16N 54°50' W 001°20'6 0.1
2015-Jun-28 05:12N 54°48' W 001°10'4 6.7
2015-Jun-28 04:33N 54°45' W 001°04'9 9.2
2015-Jun-28 03:32N 54°39' W 000°51'10 9.8
2015-Jun-28 02:29N 54°33' W 000°37'8 9.0
2015-Jun-28 01:33N 54°27' W 000°26'9 9.0
2015-Jun-28 00:33N 54°20' W 000°17'9 9.1
2015-Jun-27 23:33N 54°13' W 000°08'9 8.8
2015-Jun-27 22:33N 54°06' E 000°01'78 9.7
2015-Jun-27 14:32N 53°01' E 001°13'8 8.4
2015-Jun-27 13:33N 52°57' E 001°25'9 9.4
2015-Jun-27 12:33N 52°52' E 001°39'1110.5
2015-Jun-27 11:33N 52°45' E 001°52'1211.1
2015-Jun-27 10:26N 52°35' E 002°04'84 9.5
2015-Jun-27 01:33N 51°29' E 003°29'1110.7
2015-Jun-27 00:33N 51°23' E 003°43'6 5.2
2015-Jun-26 23:29N 51°19' E 003°49'6 6.5
2015-Jun-26 22:33N 51°13' E 003°48'3 2.3
2015-Jun-26 21:24N 51°11' E 003°48'0 0.0
2015-Jun-26 20:33N 51°11' E 003°48'0 0.0
2015-Jun-26 19:30N 51°11' E 003°48'0 0.0
2015-Jun-26 17:27N 51°11' E 003°48'0 0.0
2015-Jun-26 16:12N 51°11' E 003°48'0 0.0
2015-Jun-26 13:33N 51°11' E 003°48'0 0.0
2015-Jun-26 12:27N 51°11' E 003°48'0 0.0
2015-Jun-26 11:21N 51°11' E 003°48'0 0.0
2015-Jun-26 10:33N 51°11' E 003°48'0 0.0
2015-Jun-26 09:27N 51°11' E 003°48'0 0.0
2015-Jun-26 08:30N 51°11' E 003°48'0 0.0
2015-Jun-26 07:30N 51°11' E 003°48'0 0.0
2015-Jun-26 06:24N 51°11' E 003°48'0 0.0
2015-Jun-26 05:33N 51°11' E 003°48'0 0.0
2015-Jun-26 04:30N 51°11' E 003°48'0 0.0
2015-Jun-26 03:27N 51°11' E 003°48'1 1.3
2015-Jun-26 02:33N 51°10' E 003°47'0 0.1
2015-Jun-26 01:29N 51°10' E 003°47'0 0.0
2015-Jun-26 00:29N 51°10' E 003°47'0 0.0
2015-Jun-25 23:26N 51°10' E 003°47'0 0.0
2015-Jun-25 22:32N 51°10' E 003°47'0 0.0
2015-Jun-25 21:32N 51°10' E 003°47'0 0.0
2015-Jun-25 20:32N 51°10' E 003°47'0 0.0
2015-Jun-25 19:32N 51°10' E 003°47'0 0.0
2015-Jun-25 18:32N 51°10' E 003°47'0 0.0
2015-Jun-25 17:32N 51°10' E 003°47'0 0.0
2015-Jun-25 16:23N 51°10' E 003°47'0 0.0
2015-Jun-25 15:32N 51°10' E 003°47'0 0.0
2015-Jun-25 14:26N 51°10' E 003°47'0 0.0
2015-Jun-25 13:26N 51°10' E 003°47'0 0.0
2015-Jun-25 12:32N 51°10' E 003°47'0 0.0
2015-Jun-25 11:17N 51°10' E 003°47'0 0.0
2015-Jun-25 10:26N 51°10' E 003°47'0 0.0
2015-Jun-25 09:29N 51°10' E 003°47'0 0.0
2015-Jun-25 08:32N 51°10' E 003°47'0 0.0
2015-Jun-25 07:32N 51°10' E 003°47'0 0.0
2015-Jun-25 06:26N 51°10' E 003°47'0 0.0
2015-Jun-25 05:32N 51°10' E 003°47'0 0.0
2015-Jun-25 04:26N 51°10' E 003°47'0 0.4
2015-Jun-25 03:33N 51°10' E 003°47'8 8.3
2015-Jun-25 02:33N 51°18' E 003°50'2 2.2
2015-Jun-25 01:33N 51°20' E 003°49'1 1.3
2015-Jun-25 00:33N 51°21' E 003°47'9 8.7
2015-Jun-24 23:33N 51°26' E 003°35'8 7.8
2015-Jun-24 22:32N 51°31' E 003°26'81 8.7
2015-Jun-24 13:12N 52°34' E 002°03'2211.7
2015-Jun-24 11:20N 52°51' E 001°41'911.9
2015-Jun-24 10:33N 52°56' E 001°28'62 9.6
2015-Jun-24 04:03N 53°46' E 000°25'5 9.3
2015-Jun-24 03:33N 53°50' E 000°21'10 9.4
2015-Jun-24 02:29N 53°58' E 000°11'10 9.4
2015-Jun-24 01:24N 54°06' E 000°01'8 9.4
2015-Jun-24 00:33N 54°12' W 000°07'1010.1
2015-Jun-23 23:33N 54°20' W 000°17'1010.5
2015-Jun-23 22:33N 54°29' W 000°28'1110.9
2015-Jun-23 21:33N 54°37' W 000°41'1110.6
2015-Jun-23 20:33N 54°45' W 000°53'9 9.1
2015-Jun-23 19:33N 54°49' W 001°07'7 8.1
2015-Jun-23 18:38N 54°50' W 001°20'0 0.0
2015-Jun-22 11:10N 54°50' W 001°20'13 0.4
2015-Jun-21 02:33N 54°43' W 001°00'8 7.3
2015-Jun-21 01:31N 54°39' W 000°50'10 7.5
2015-Jun-21 00:13N 54°33' W 000°36'5 7.5
2015-Jun-20 23:33N 54°29' W 000°30'7 7.4
2015-Jun-20 22:33N 54°23' W 000°23'7 7.0
2015-Jun-20 21:33N 54°18' W 000°15'8 7.7
2015-Jun-20 20:33N 54°12' W 000°07'7 7.4
2015-Jun-20 19:33N 54°06' E 000°00'8 7.6
2015-Jun-20 18:33N 53°60' E 000°07'8 8.1
2015-Jun-20 17:33N 53°53' E 000°14'62 9.8
2015-Jun-20 11:16N 53°01' E 001°12'6 8.1
2015-Jun-20 10:33N 52°58' E 001°20'  
Track history (hours):
 
Tides and Currents Weather Stations Pressure Air Temp Water Temp Dewpoint Dewpoint Depression Visibility Wind Speed Wind Dir Waves Ship Positions

Taranto

Last reported at 2015-Jun-30 09:33 UTC. Time now 2015-Jun-30 09:59 UTC.
Position N 54°07' E 000°00'.

Length 88 m; draft 3.4 m.

Type: Ship. MMSI: 304010614.

Date/timePositionNaut miles runAvg speedWind from/ knotsBaromVisibWave heightAir tempDewpointWater temp
2015-Jun-30 09:33N 54°07' E 000°00'6 5.8
2015-Jun-30 08:33N 54°11' W 000°06'6 6.1
2015-Jun-30 07:33N 54°16' W 000°12'7 6.5
2015-Jun-30 06:33N 54°21' W 000°19'7 6.8
2015-Jun-30 05:33N 54°27' W 000°26'8 7.7
2015-Jun-30 04:30N 54°33' W 000°35'8 8.2
2015-Jun-30 03:33N 54°37' W 000°46'9 8.4
2015-Jun-30 02:31N 54°42' W 000°59'8 8.2
2015-Jun-30 01:33N 54°47' W 001°10'7 5.1
2015-Jun-30 00:16N 54°50' W 001°20'6 0.1
2015-Jun-28 05:12N 54°48' W 001°10'4 6.7
2015-Jun-28 04:33N 54°45' W 001°04'9 9.2
2015-Jun-28 03:32N 54°39' W 000°51'10 9.8
2015-Jun-28 02:29N 54°33' W 000°37'8 9.0
2015-Jun-28 01:33N 54°27' W 000°26'9 9.0
2015-Jun-28 00:33N 54°20' W 000°17'9 9.1
2015-Jun-27 23:33N 54°13' W 000°08'9 8.8
2015-Jun-27 22:33N 54°06' E 000°01'78 9.7
2015-Jun-27 14:32N 53°01' E 001°13'8 8.4
2015-Jun-27 13:33N 52°57' E 001°25'9 9.4
2015-Jun-27 12:33N 52°52' E 001°39'1110.5
2015-Jun-27 11:33N 52°45' E 001°52'1211.1
2015-Jun-27 10:26N 52°35' E 002°04'84 9.5
2015-Jun-27 01:33N 51°29' E 003°29'1110.7
2015-Jun-27 00:33N 51°23' E 003°43'6 5.2
2015-Jun-26 23:29N 51°19' E 003°49'6 6.5
2015-Jun-26 22:33N 51°13' E 003°48'3 2.3
2015-Jun-26 21:24N 51°11' E 003°48'0 0.0
2015-Jun-26 20:33N 51°11' E 003°48'0 0.0
2015-Jun-26 19:30N 51°11' E 003°48'0 0.0
2015-Jun-26 17:27N 51°11' E 003°48'0 0.0
2015-Jun-26 16:12N 51°11' E 003°48'0 0.0
2015-Jun-26 13:33N 51°11' E 003°48'0 0.0
2015-Jun-26 12:27N 51°11' E 003°48'0 0.0
2015-Jun-26 11:21N 51°11' E 003°48'0 0.0
2015-Jun-26 10:33N 51°11' E 003°48'0 0.0
2015-Jun-26 09:27N 51°11' E 003°48'0 0.0
2015-Jun-26 08:30N 51°11' E 003°48'0 0.0
2015-Jun-26 07:30N 51°11' E 003°48'0 0.0
2015-Jun-26 06:24N 51°11' E 003°48'0 0.0
2015-Jun-26 05:33N 51°11' E 003°48'0 0.0
2015-Jun-26 04:30N 51°11' E 003°48'0 0.0
2015-Jun-26 03:27N 51°11' E 003°48'1 1.3
2015-Jun-26 02:33N 51°10' E 003°47'0 0.1
2015-Jun-26 01:29N 51°10' E 003°47'0 0.0
2015-Jun-26 00:29N 51°10' E 003°47'0 0.0
2015-Jun-25 23:26N 51°10' E 003°47'0 0.0
2015-Jun-25 22:32N 51°10' E 003°47'0 0.0
2015-Jun-25 21:32N 51°10' E 003°47'0 0.0
2015-Jun-25 20:32N 51°10' E 003°47'0 0.0
2015-Jun-25 19:32N 51°10' E 003°47'0 0.0
2015-Jun-25 18:32N 51°10' E 003°47'0 0.0
2015-Jun-25 17:32N 51°10' E 003°47'0 0.0
2015-Jun-25 16:23N 51°10' E 003°47'0 0.0
2015-Jun-25 15:32N 51°10' E 003°47'0 0.0
2015-Jun-25 14:26N 51°10' E 003°47'0 0.0
2015-Jun-25 13:26N 51°10' E 003°47'0 0.0
2015-Jun-25 12:32N 51°10' E 003°47'0 0.0
2015-Jun-25 11:17N 51°10' E 003°47'0 0.0
2015-Jun-25 10:26N 51°10' E 003°47'0 0.0
2015-Jun-25 09:29N 51°10' E 003°47'0 0.0
2015-Jun-25 08:32N 51°10' E 003°47'0 0.0
2015-Jun-25 07:32N 51°10' E 003°47'0 0.0
2015-Jun-25 06:26N 51°10' E 003°47'0 0.0
2015-Jun-25 05:32N 51°10' E 003°47'0 0.0
2015-Jun-25 04:26N 51°10' E 003°47'0 0.4
2015-Jun-25 03:33N 51°10' E 003°47'8 8.3
2015-Jun-25 02:33N 51°18' E 003°50'2 2.2
2015-Jun-25 01:33N 51°20' E 003°49'1 1.3
2015-Jun-25 00:33N 51°21' E 003°47'9 8.7
2015-Jun-24 23:33N 51°26' E 003°35'8 7.8
2015-Jun-24 22:32N 51°31' E 003°26'81 8.7
2015-Jun-24 13:12N 52°34' E 002°03'2211.7
2015-Jun-24 11:20N 52°51' E 001°41'911.9
2015-Jun-24 10:33N 52°56' E 001°28'62 9.6
2015-Jun-24 04:03N 53°46' E 000°25'5 9.3
2015-Jun-24 03:33N 53°50' E 000°21'10 9.4
2015-Jun-24 02:29N 53°58' E 000°11'10 9.4
2015-Jun-24 01:24N 54°06' E 000°01'8 9.4
2015-Jun-24 00:33N 54°12' W 000°07'1010.1
2015-Jun-23 23:33N 54°20' W 000°17'1010.5
2015-Jun-23 22:33N 54°29' W 000°28'1110.9
2015-Jun-23 21:33N 54°37' W 000°41'1110.6
2015-Jun-23 20:33N 54°45' W 000°53'9 9.1
2015-Jun-23 19:33N 54°49' W 001°07'7 8.1
2015-Jun-23 18:38N 54°50' W 001°20'0 0.0
2015-Jun-22 11:10N 54°50' W 001°20'13 0.4
2015-Jun-21 02:33N 54°43' W 001°00'8 7.3
2015-Jun-21 01:31N 54°39' W 000°50'10 7.5
2015-Jun-21 00:13N 54°33' W 000°36'5 7.5
2015-Jun-20 23:33N 54°29' W 000°30'7 7.4
2015-Jun-20 22:33N 54°23' W 000°23'7 7.0
2015-Jun-20 21:33N 54°18' W 000°15'8 7.7
2015-Jun-20 20:33N 54°12' W 000°07'7 7.4
2015-Jun-20 19:33N 54°06' E 000°00'8 7.6
2015-Jun-20 18:33N 53°60' E 000°07'8 8.1
2015-Jun-20 17:33N 53°53' E 000°14'62 9.8
2015-Jun-20 11:16N 53°01' E 001°12'6 8.1
2015-Jun-20 10:33N 52°58' E 001°20'  

Dump ship's entire track history